Eastland Hill, Pennsylvania
Current Conditions -  °F | °C
As of 4:53 AM on Thursday 23 Oct 2014 (Local Time) from KRYT Reporting Station
Overcast Overcast  
Wind Chill: 50°   Ceiling: 2400
Heat Index: 50°   Visibility: 10mi
Dew Point: 41°   Wind: 6mph
Humidity: 71%   Direction: NA
Pressure: 29.9"   Gusts: NA
Location:  39.7777°N, 77.5693°W
Report Text: KRYT 230853Z AUTO VRB05KT 10SM OVC024 10/05 A2990 RMK AO2 SLP125 T01000050 55008 $
Loading
Personal Weather Stations






























Interactive Weather Map
Tropical Storm Tracking
New forecast layout! Learn more

10-Day Weather Forecast

Advertisements
Track Severe Weather on mobile